Time;durP1;ratioP1;P1;durP2;ratioP2;P2;SDS_P1;SDS_P2;PMS_P1;PMS_P2;Temp;Humidity;BMP_temperature;BMP_pressure;BME280_temperature;BME280_humidity;BME280_pressure;Samples;Min_cycle;Max_cycle;Signal;HPM_P1;HPM_P2
2022/04/28 00:00:59;;;;;;;33.17;26.33;;;9.20;99.90;;;;;;5110855;27;20237;-52
2022/04/28 00:03:28;;;;;;;36.17;25.93;;;9.20;99.90;;;;;;5110408;28;20210;-51
2022/04/28 00:05:57;;;;;;;35.37;25.50;;;9.10;99.90;;;;;;5111275;28;20243;-51
2022/04/28 00:08:25;;;;;;;30.50;23.83;;;9.20;99.90;;;;;;5110844;28;20207;-52
2022/04/28 00:10:55;;;;;;;37.63;26.60;;;9.10;99.90;;;;;;5111753;28;20273;-50
2022/04/28 00:13:23;;;;;;;34.57;25.73;;;9.10;99.90;;;;;;5111039;28;20211;-52
2022/04/28 00:15:51;;;;;;;32.47;24.47;;;9.00;99.90;;;;;;5111366;28;20260;-52
2022/04/28 00:18:19;;;;;;;38.30;27.93;;;9.00;99.90;;;;;;5111599;28;20294;-52
2022/04/28 00:20:47;;;;;;;38.80;27.67;;;9.00;99.90;;;;;;5111318;28;20543;-51
2022/04/28 00:23:15;;;;;;;44.73;29.77;;;9.00;99.90;;;;;;5110908;28;20204;-51
2022/04/28 00:25:43;;;;;;;33.77;25.13;;;8.90;99.90;;;;;;5111220;28;20272;-51
2022/04/28 00:28:13;;;;;;;32.53;26.40;;;8.90;99.90;;;;;;5111404;28;20255;-51
2022/04/28 00:30:41;;;;;;;33.63;26.00;;;8.90;99.90;;;;;;5111322;28;20203;-51
2022/04/28 00:33:13;;;;;;;30.37;23.50;;;8.80;99.90;;;;;;5110646;28;20223;-51
2022/04/28 00:35:42;;;;;;;29.60;24.17;;;8.80;99.90;;;;;;5111234;28;20230;-52
2022/04/28 00:38:11;;;;;;;35.20;24.37;;;8.80;99.90;;;;;;5111139;28;20615;-52
2022/04/28 00:40:39;;;;;;;29.73;23.30;;;8.70;99.90;;;;;;5111184;28;20252;-52
2022/04/28 00:45:53;;;;;;;30.93;24.30;;;8.70;99.90;;;;;;5109512;28;20884;-51
2022/04/28 00:51:17;;;;;;;28.37;22.33;;;8.70;99.90;;;;;;5090324;28;20208;-51
2022/04/28 00:53:49;;;;;;;27.03;21.97;;;8.70;99.90;;;;;;5114223;28;20203;-52
2022/04/28 00:56:17;;;;;;;28.87;21.70;;;8.70;99.90;;;;;;5114869;28;20285;-52
2022/04/28 00:58:45;;;;;;;25.53;21.00;;;8.60;99.90;;;;;;5114680;28;20223;-51
2022/04/28 01:01:14;;;;;;;26.67;20.63;;;8.70;99.90;;;;;;5115177;28;20199;-51
2022/04/28 01:03:46;;;;;;;23.67;19.07;;;8.60;99.90;;;;;;5114615;28;20348;-51
2022/04/28 01:06:14;;;;;;;24.50;20.30;;;8.50;99.90;;;;;;5114765;28;20227;-51
2022/04/28 01:08:42;;;;;;;26.13;20.70;;;8.50;99.90;;;;;;5115068;28;20288;-52
2022/04/28 01:11:11;;;;;;;29.70;23.37;;;8.50;99.90;;;;;;5115303;28;20274;-52
2022/04/28 01:13:39;;;;;;;30.63;23.70;;;8.40;99.90;;;;;;5114513;28;20709;-51
2022/04/28 01:16:07;;;;;;;27.13;22.03;;;8.40;99.90;;;;;;5114509;28;20710;-51
2022/04/28 01:18:37;;;;;;;34.70;24.07;;;8.40;99.90;;;;;;5115310;28;20207;-52
2022/04/28 01:21:07;;;;;;;26.47;22.33;;;8.40;99.90;;;;;;5094424;28;20216;-50
2022/04/28 01:23:37;;;;;;;30.03;21.97;;;8.40;99.90;;;;;;5093960;28;20703;-51
2022/04/28 01:26:05;;;;;;;29.93;23.50;;;8.30;99.90;;;;;;5094637;28;20564;-51
2022/04/28 01:28:34;;;;;;;28.57;22.60;;;8.30;99.90;;;;;;5097645;28;20269;-51
2022/04/28 01:31:05;;;;;;;28.70;22.03;;;8.20;99.90;;;;;;5114309;28;20203;-51
2022/04/28 01:33:33;;;;;;;26.50;21.30;;;8.20;99.90;;;;;;5113921;28;20238;-51
2022/04/28 01:36:01;;;;;;;28.97;22.63;;;8.20;99.90;;;;;;5114132;28;20634;-51
2022/04/28 01:38:32;;;;;;;29.30;23.60;;;8.10;99.90;;;;;;5114473;28;20699;-50
2022/04/28 01:41:00;;;;;;;32.23;24.07;;;8.10;99.90;;;;;;5114828;28;20632;-51
2022/04/28 01:43:28;;;;;;;28.37;23.90;;;8.00;99.90;;;;;;5113602;28;20741;-52
2022/04/28 01:45:56;;;;;;;31.70;24.67;;;8.00;99.90;;;;;;5113017;28;20227;-51
2022/04/28 01:48:25;;;;;;;29.43;22.20;;;7.90;99.90;;;;;;5113898;28;20214;-51
2022/04/28 01:56:25;;;;;;;33.73;23.37;;;7.90;99.90;;;;;;5113839;28;20768;-51
2022/04/28 01:58:53;;;;;;;26.43;23.27;;;7.90;99.90;;;;;;5112632;28;20207;-51
2022/04/28 02:01:22;;;;;;;29.53;23.83;;;7.90;99.90;;;;;;5113980;28;20212;-51
2022/04/28 02:03:50;;;;;;;29.90;21.97;;;7.80;99.90;;;;;;5113514;28;20199;-51
2022/04/28 02:06:18;;;;;;;27.90;21.40;;;7.70;99.90;;;;;;5113707;28;20703;-51
2022/04/28 02:08:48;;;;;;;29.57;22.67;;;7.60;99.90;;;;;;5108234;28;20204;-50
2022/04/28 02:11:16;;;;;;;32.33;23.53;;;7.70;99.90;;;;;;5093088;28;20269;-52
2022/04/28 02:13:44;;;;;;;30.37;21.47;;;7.70;99.90;;;;;;5092169;28;20219;-50
2022/04/28 02:16:12;;;;;;;26.90;21.77;;;7.70;99.90;;;;;;5092596;28;20273;-50
2022/04/28 02:18:41;;;;;;;30.00;22.57;;;7.70;99.90;;;;;;5093644;28;20209;-52
2022/04/28 02:21:09;;;;;;;27.20;22.30;;;7.70;99.90;;;;;;5113383;28;20236;-51
2022/04/28 02:23:37;;;;;;;28.23;23.23;;;7.70;99.90;;;;;;5113139;28;20203;-51
2022/04/28 02:26:06;;;;;;;28.13;23.50;;;7.60;99.90;;;;;;5113383;28;20315;-51
2022/04/28 02:28:34;;;;;;;29.10;22.80;;;7.60;99.90;;;;;;5113624;28;20203;-51
2022/04/28 02:31:03;;;;;;;31.50;23.37;;;7.60;99.90;;;;;;5112925;27;20208;-51
2022/04/28 02:33:31;;;;;;;23.63;19.37;;;7.60;99.90;;;;;;5112642;28;20764;-51
2022/04/28 02:35:59;;;;;;;24.37;20.13;;;7.60;99.90;;;;;;5113608;28;20227;-50
2022/04/28 02:38:27;;;;;;;26.27;20.10;;;7.50;99.90;;;;;;5113499;28;20254;-51
2022/04/28 02:40:55;;;;;;;23.83;18.63;;;7.50;99.90;;;;;;5112979;28;20638;-52
2022/04/28 02:43:25;;;;;;;23.47;18.60;;;7.40;99.90;;;;;;5112603;28;20238;-51
2022/04/28 02:45:53;;;;;;;27.70;19.73;;;7.40;99.90;;;;;;5112690;28;20218;-51
2022/04/28 02:48:22;;;;;;;22.20;18.77;;;7.40;99.90;;;;;;5098599;28;20213;-51
2022/04/28 02:50:50;;;;;;;22.63;18.13;;;7.30;99.90;;;;;;5093058;28;20260;-52
2022/04/28 02:53:18;;;;;;;25.07;20.10;;;7.20;99.90;;;;;;5091738;28;20227;-50
2022/04/28 02:55:46;;;;;;;24.20;19.97;;;7.20;99.90;;;;;;5092446;28;20288;-51
2022/04/28 02:58:14;;;;;;;21.20;17.40;;;7.10;99.90;;;;;;5092096;28;20264;-51
2022/04/28 03:00:44;;;;;;;19.40;17.03;;;7.10;99.90;;;;;;5092429;28;20212;-50
2022/04/28 03:03:12;;;;;;;23.93;19.33;;;7.10;99.90;;;;;;5109554;28;20226;-51
2022/04/28 03:11:17;;;;;;;22.93;18.83;;;7.00;99.90;;;;;;5111923;28;20199;-51
2022/04/28 03:13:45;;;;;;;20.60;18.20;;;6.90;99.90;;;;;;5112000;28;20226;-51
2022/04/28 03:16:14;;;;;;;23.80;19.10;;;6.90;99.90;;;;;;5112167;28;20230;-51
2022/04/28 03:18:44;;;;;;;23.47;19.13;;;6.90;99.90;;;;;;5112633;28;20607;-51
2022/04/28 03:21:13;;;;;;;19.90;17.73;;;6.90;99.90;;;;;;5112454;28;20211;-51
2022/04/28 03:23:41;;;;;;;24.17;18.90;;;7.00;99.90;;;;;;5111466;28;20207;-51
2022/04/28 03:26:11;;;;;;;24.20;18.23;;;7.00;99.90;;;;;;5111876;28;20224;-52
2022/04/28 03:28:39;;;;;;;22.10;18.20;;;7.00;99.90;;;;;;5111963;28;20202;-51
2022/04/28 03:31:08;;;;;;;22.93;17.93;;;7.00;99.90;;;;;;5111854;28;20203;-51
2022/04/28 03:33:38;;;;;;;23.47;17.87;;;7.00;99.90;;;;;;5111440;28;20583;-51
2022/04/28 03:36:50;;;;;;;19.13;17.10;;;7.00;99.90;;;;;;5112022;28;20271;-51
2022/04/28 03:38:55;;;;;;;21.73;17.63;;;7.00;99.90;;;;;;5111092;28;20205;-51
2022/04/28 03:41:23;;;;;;;19.87;17.77;;;7.00;99.90;;;;;;5112018;28;20235;-51
2022/04/28 03:43:52;;;;;;;22.73;18.93;;;7.00;99.90;;;;;;5111331;28;20203;-52
2022/04/28 03:46:20;;;;;;;25.93;18.60;;;6.90;99.90;;;;;;5110423;28;20282;-51
2022/04/28 03:48:50;;;;;;;23.93;19.60;;;7.00;99.90;;;;;;5111290;28;20287;-51
2022/04/28 03:51:18;;;;;;;22.17;18.37;;;6.90;99.90;;;;;;5112020;28;20284;-51
2022/04/28 03:53:46;;;;;;;23.17;17.40;;;6.90;99.90;;;;;;5111109;28;20226;-51
2022/04/28 03:56:14;;;;;;;20.27;17.27;;;6.90;99.90;;;;;;5111605;28;20227;-51
2022/04/28 03:58:42;;;;;;;25.93;19.53;;;6.90;99.90;;;;;;5111829;28;20969;-52
2022/04/28 04:01:10;;;;;;;23.43;18.63;;;6.80;99.90;;;;;;5111094;28;20759;-52
2022/04/28 04:03:39;;;;;;;24.73;19.00;;;6.80;99.90;;;;;;5111071;28;20203;-52
2022/04/28 04:06:08;;;;;;;27.83;19.60;;;6.80;99.90;;;;;;5111167;28;20242;-49
2022/04/28 04:08:36;;;;;;;26.67;19.07;;;6.70;99.90;;;;;;5111324;28;20264;-52
2022/04/28 04:11:04;;;;;;;23.80;18.23;;;6.70;99.90;;;;;;5111554;28;20203;-51
2022/04/28 04:13:32;;;;;;;25.03;18.60;;;6.70;99.90;;;;;;5110963;28;20269;-51
2022/04/28 04:16:01;;;;;;;26.27;19.33;;;6.70;99.90;;;;;;5111141;28;20227;-51
2022/04/28 04:18:29;;;;;;;25.93;19.17;;;6.60;99.90;;;;;;5111489;28;20207;-51
2022/04/28 04:20:58;;;;;;;26.63;18.53;;;6.70;99.90;;;;;;5111874;28;20270;-51
2022/04/28 04:23:27;;;;;;;26.60;20.70;;;6.60;99.90;;;;;;5117648;28;20226;-52
2022/04/28 04:25:56;;;;;;;24.30;19.33;;;6.60;99.90;;;;;;5120280;28;20226;-51
2022/04/28 04:28:25;;;;;;;23.93;18.57;;;6.70;99.90;;;;;;5117214;28;20260;-51
2022/04/28 04:33:38;;;;;;;24.17;18.67;;;6.70;99.90;;;;;;5114446;28;20222;-51
2022/04/28 04:36:06;;;;;;;22.47;18.00;;;6.70;99.90;;;;;;5115505;28;20253;-51
2022/04/28 04:38:36;;;;;;;21.13;18.17;;;6.90;99.90;;;;;;5114999;28;20724;-51
2022/04/28 04:41:05;;;;;;;24.90;19.00;;;7.40;99.90;;;;;;5115361;28;20260;-51
2022/04/28 04:43:33;;;;;;;19.83;17.70;;;7.80;99.90;;;;;;5114625;28;20203;-52
2022/04/28 04:46:01;;;;;;;24.60;18.27;;;8.10;99.90;;;;;;5113195;28;20633;-52
2022/04/28 04:48:33;;;;;;;22.87;17.37;;;8.40;99.90;;;;;;5114758;28;20204;-52
2022/04/28 04:51:02;;;;;;;22.03;17.40;;;8.50;99.90;;;;;;5114559;28;20745;-52
2022/04/28 04:53:30;;;;;;;19.77;16.80;;;8.60;99.90;;;;;;5114035;28;20677;-52
2022/04/28 04:56:00;;;;;;;19.07;17.07;;;8.70;99.90;;;;;;5114125;28;20223;-52
2022/04/28 04:58:28;;;;;;;23.47;17.27;;;8.70;99.90;;;;;;5115392;27;20259;-52
2022/04/28 05:00:56;;;;;;;20.97;17.67;;;8.40;99.90;;;;;;5115055;28;20249;-51
2022/04/28 05:03:25;;;;;;;22.20;17.63;;;8.20;99.90;;;;;;5114575;28;20306;-51
2022/04/28 05:05:53;;;;;;;21.60;17.63;;;8.00;99.90;;;;;;5114713;28;20336;-52
2022/04/28 05:08:22;;;;;;;22.13;17.63;;;8.00;99.90;;;;;;5115033;28;20562;-52
2022/04/28 05:10:51;;;;;;;22.17;17.57;;;7.90;99.90;;;;;;5114670;28;20746;-51
2022/04/28 05:13:21;;;;;;;20.70;17.60;;;7.90;99.90;;;;;;5114738;28;20211;-51
2022/04/28 05:15:49;;;;;;;22.43;17.50;;;8.00;99.90;;;;;;5114784;28;20284;-51
2022/04/28 05:18:18;;;;;;;20.83;16.20;;;8.00;99.90;;;;;;5114988;28;20215;-52
2022/04/28 05:20:46;;;;;;;19.30;16.73;;;8.00;99.90;;;;;;5114610;28;20257;-51
2022/04/28 05:23:14;;;;;;;22.47;15.83;;;8.00;99.90;;;;;;5114142;28;20218;-51
2022/04/28 05:25:42;;;;;;;22.53;16.13;;;8.00;99.90;;;;;;5114605;28;20219;-50
2022/04/28 05:28:10;;;;;;;21.30;17.53;;;8.30;99.90;;;;;;5114482;28;20213;-51
2022/04/28 05:30:40;;;;;;;21.07;17.40;;;8.50;99.90;;;;;;5114515;28;20269;-51
2022/04/28 05:33:08;;;;;;;21.50;16.93;;;8.50;99.90;;;;;;5113218;28;20237;-52
2022/04/28 05:35:39;;;;;;;22.00;16.47;;;8.50;99.90;;;;;;5113920;28;20261;-51
2022/04/28 05:38:09;;;;;;;21.93;16.73;;;8.70;99.90;;;;;;5114299;28;20264;-51
2022/04/28 05:40:40;;;;;;;19.00;16.40;;;8.90;99.90;;;;;;5114015;28;20256;-51
2022/04/28 05:45:58;;;;;;;20.00;17.83;;;9.40;99.90;;;;;;5112188;28;20256;-52
2022/04/28 05:48:27;;;;;;;23.70;18.80;;;9.60;99.90;;;;;;5114302;28;20211;-52
2022/04/28 05:50:55;;;;;;;21.40;18.80;;;9.50;99.90;;;;;;5114268;28;20204;-51
2022/04/28 05:53:23;;;;;;;25.07;20.47;;;9.60;99.90;;;;;;5113302;28;20208;-51
2022/04/28 05:55:51;;;;;;;23.83;19.67;;;9.70;99.90;;;;;;5113724;28;20265;-51
2022/04/28 05:58:19;;;;;;;25.27;19.67;;;9.80;99.90;;;;;;5113765;28;20245;-51
2022/04/28 06:00:47;;;;;;;26.07;19.70;;;9.80;99.90;;;;;;5113834;28;20247;-51
2022/04/28 06:03:17;;;;;;;25.70;21.03;;;9.80;99.90;;;;;;5113509;28;20249;-52
2022/04/28 06:05:45;;;;;;;27.50;19.80;;;9.70;99.90;;;;;;5113511;28;20642;-52
2022/04/28 06:08:13;;;;;;;23.23;19.80;;;9.80;99.90;;;;;;5114112;28;20203;-51
2022/04/28 06:10:41;;;;;;;25.30;19.80;;;10.00;99.90;;;;;;5092219;28;20212;-52
2022/04/28 06:13:10;;;;;;;23.63;20.27;;;10.30;99.90;;;;;;5102536;28;20629;-51
2022/04/28 06:15:38;;;;;;;23.23;19.60;;;11.00;99.90;;;;;;5113355;28;20232;-52
2022/04/28 06:18:07;;;;;;;23.63;18.73;;;11.60;99.90;;;;;;5113047;28;20579;-52
2022/04/28 06:20:36;;;;;;;19.77;17.63;;;12.20;99.90;;;;;;5113668;28;20199;-52
2022/04/28 06:23:04;;;;;;;21.03;18.67;;;12.70;99.90;;;;;;5112510;28;20207;-52
2022/04/28 06:25:33;;;;;;;24.77;18.10;;;13.10;99.90;;;;;;5113643;28;20224;-52
2022/04/28 06:28:01;;;;;;;20.23;16.50;;;13.50;99.90;;;;;;5111718;28;20200;-52
2022/04/28 06:30:29;;;;;;;18.47;16.30;;;13.90;99.90;;;;;;5113420;28;20196;-52
2022/04/28 06:32:57;;;;;;;22.05;18.13;;;14.30;99.90;;;;;;5112318;28;20211;-52
2022/04/28 06:35:25;;;;;;;20.63;17.38;;;14.50;99.90;;;;;;5112876;28;20231;-52
2022/04/28 06:37:55;;;;;;;21.83;17.83;;;14.80;99.90;;;;;;5112633;28;20207;-52
2022/04/28 06:40:23;;;;;;;19.27;17.27;;;15.10;99.90;;;;;;5112751;28;20203;-52
2022/04/28 06:42:52;;;;;;;19.38;17.30;;;15.20;99.90;;;;;;5112428;28;20256;-52
2022/04/28 06:45:20;;;;;;;19.10;17.10;;;15.50;99.90;;;;;;5112112;28;20226;-52
2022/04/28 06:47:48;;;;;;;18.02;16.05;;;15.80;99.90;;;;;;5113079;28;20207;-52
2022/04/28 06:50:16;;;;;;;20.08;17.83;;;15.90;99.90;;;;;;5112781;28;20207;-52
2022/04/28 06:52:45;;;;;;;24.52;21.58;;;16.20;99.90;;;;;;5112399;28;20207;-52
2022/04/28 06:55:14;;;;;;;21.45;19.00;;;16.50;99.90;;;;;;5112787;28;20277;-52
2022/04/28 06:57:43;;;;;;;20.75;16.02;;;16.50;99.90;;;;;;5112751;28;20208;-52
2022/04/28 07:00:12;;;;;;;17.70;15.88;;;16.60;99.90;;;;;;5112714;28;20310;-52
2022/04/28 07:02:40;;;;;;;18.55;16.13;;;16.80;99.90;;;;;;5111581;28;20208;-52
2022/04/28 07:05:09;;;;;;;18.05;16.02;;;16.90;99.90;;;;;;5094180;28;20228;-52
2022/04/28 07:07:37;;;;;;;20.65;16.13;;;16.90;99.90;;;;;;5111637;28;20268;-52
2022/04/28 07:10:06;;;;;;;18.50;16.60;;;17.00;99.90;;;;;;5112517;28;20638;-52
2022/04/28 07:12:36;;;;;;;19.10;16.67;;;17.00;99.90;;;;;;5101613;28;20250;-52
2022/04/28 07:15:04;;;;;;;20.63;17.13;;;17.10;99.90;;;;;;5103932;28;20272;-53
2022/04/28 07:17:33;;;;;;;20.40;17.42;;;17.30;99.90;;;;;;5114070;28;20672;-53
2022/04/28 07:20:01;;;;;;;18.00;15.82;;;17.40;99.90;;;;;;5116129;28;20253;-51
2022/04/28 07:22:29;;;;;;;20.20;16.20;;;17.40;99.90;;;;;;5112785;28;20688;-52
2022/04/28 07:24:57;;;;;;;21.70;17.17;;;17.40;99.90;;;;;;5112293;28;20861;-52
2022/04/28 07:27:25;;;;;;;18.02;16.00;;;17.50;99.90;;;;;;5110365;28;20898;-52
2022/04/28 07:29:55;;;;;;;17.52;15.60;;;17.60;99.90;;;;;;5112107;28;20263;-52
2022/04/28 07:32:23;;;;;;;19.73;16.00;;;17.70;99.90;;;;;;5111508;28;20265;-51
2022/04/28 07:34:51;;;;;;;18.23;15.85;;;17.90;99.90;;;;;;5111710;28;20351;-51
2022/04/28 07:37:19;;;;;;;16.92;15.13;;;18.10;99.90;;;;;;5111803;28;20203;-52
2022/04/28 07:39:47;;;;;;;20.02;16.42;;;18.30;99.90;;;;;;5111662;28;20717;-52
2022/04/28 07:42:15;;;;;;;16.83;15.02;;;18.30;99.90;;;;;;5110973;28;20211;-52
2022/04/28 07:44:43;;;;;;;16.85;15.18;;;18.40;99.90;;;;;;5111549;28;20233;-52
2022/04/28 07:47:13;;;;;;;18.55;16.30;;;18.10;99.90;;;;;;5111527;28;20211;-52
2022/04/28 07:49:41;;;;;;;18.60;16.25;;;18.10;99.90;;;;;;5111779;28;20213;-51
2022/04/28 07:52:10;;;;;;;18.23;16.17;;;18.30;99.90;;;;;;5110770;28;20211;-52
2022/04/28 07:54:38;;;;;;;17.75;15.85;;;18.50;99.90;;;;;;5111205;28;20264;-52
2022/04/28 07:57:07;;;;;;;20.75;16.20;;;18.30;99.90;;;;;;5111288;28;20700;-52
2022/04/28 07:59:35;;;;;;;17.80;15.88;;;18.20;99.90;;;;;;5111640;28;20618;-52
2022/04/28 08:02:04;;;;;;;17.55;15.68;;;17.90;99.90;;;;;;5090683;28;20219;-52
2022/04/28 08:04:34;;;;;;;17.35;15.55;;;17.60;99.90;;;;;;5090804;28;20241;-52
2022/04/28 08:07:03;;;;;;;19.23;16.15;;;17.50;99.90;;;;;;5091063;28;20196;-53
2022/04/28 08:09:31;;;;;;;18.75;15.90;;;17.30;99.90;;;;;;5101781;28;20234;-52
2022/04/28 08:12:06;;;;;;;16.90;14.60;;;17.30;99.90;;;;;;5110995;28;20207;-52
2022/04/28 08:14:34;;;;;;;19.23;16.42;;;17.30;99.90;;;;;;5110977;28;20207;-52
2022/04/28 08:17:03;;;;;;;18.27;16.20;;;17.20;99.90;;;;;;5111260;28;20223;-52
2022/04/28 08:19:33;;;;;;;20.35;16.30;;;17.20;99.90;;;;;;5111475;28;20749;-52
2022/04/28 08:22:02;;;;;;;18.88;15.88;;;17.30;99.90;;;;;;5109889;28;20222;-52
2022/04/28 08:24:30;;;;;;;20.70;15.85;;;17.30;99.90;;;;;;5111130;28;20207;-52
2022/04/28 08:26:59;;;;;;;21.23;16.20;;;17.40;99.90;;;;;;5111518;28;20207;-52
2022/04/28 08:29:28;;;;;;;18.00;15.88;;;17.40;99.90;;;;;;5111047;28;20676;-52
2022/04/28 08:31:56;;;;;;;18.10;15.77;;;17.20;99.90;;;;;;5106252;28;20268;-52
2022/04/28 08:34:24;;;;;;;20.48;16.83;;;17.40;99.90;;;;;;5097242;28;20220;-52
2022/04/28 08:36:54;;;;;;;22.83;16.55;;;17.40;99.90;;;;;;5102149;28;20232;-53
2022/04/28 08:39:23;;;;;;;20.77;16.40;;;17.50;99.90;;;;;;5090172;28;20208;-52
2022/04/28 08:41:53;;;;;;;18.58;15.77;;;17.50;99.90;;;;;;5090473;28;20689;-53
2022/04/28 08:44:23;;;;;;;22.50;16.80;;;17.50;99.90;;;;;;5090323;28;20204;-52
2022/04/28 08:46:54;;;;;;;18.25;16.08;;;17.60;99.90;;;;;;5109859;28;20234;-52
2022/04/28 08:49:26;;;;;;;19.98;15.25;;;17.70;99.90;;;;;;5109303;28;20646;-53
2022/04/28 08:51:56;;;;;;;18.98;16.38;;;17.50;99.90;;;;;;5111943;28;20204;-53
2022/04/28 08:54:26;;;;;;;19.23;16.05;;;17.50;99.90;;;;;;5131347;28;20271;-52
2022/04/28 08:56:56;;;;;;;21.45;17.17;;;17.60;99.90;;;;;;5130929;27;20692;-52
2022/04/28 08:59:45;;;;;;;18.40;16.33;;;17.70;99.90;;;;;;5131371;28;20660;-53
2022/04/28 09:02:24;;;;;;;19.65;16.05;;;17.90;99.90;;;;;;5090336;28;20212;-52
2022/04/28 09:04:59;;;;;;;20.17;16.33;;;17.90;99.90;;;;;;5090279;28;20227;-52
2022/04/28 09:07:34;;;;;;;19.63;15.43;;;18.10;99.90;;;;;;5090138;28;20550;-52
2022/04/28 09:10:29;;;;;;;18.20;14.45;;;18.10;99.90;;;;;;5110002;28;20256;-52
2022/04/28 09:15:44;;;;;;;18.38;14.52;;;18.10;99.90;;;;;;5113603;28;20228;-52
2022/04/28 09:18:12;;;;;;;17.52;15.70;;;18.20;99.90;;;;;;5114483;28;20276;-52
2022/04/28 09:20:41;;;;;;;19.13;15.95;;;18.30;99.90;;;;;;5114616;28;20204;-52
2022/04/28 09:23:11;;;;;;;15.88;14.32;;;18.10;99.90;;;;;;5113763;28;20587;-52
2022/04/28 09:25:42;;;;;;;20.67;15.85;;;18.00;99.90;;;;;;5114195;28;20269;-52
2022/04/28 09:28:11;;;;;;;16.17;14.57;;;18.00;99.90;;;;;;5114378;28;20256;-52
2022/04/28 09:30:43;;;;;;;17.63;15.68;;;18.10;99.90;;;;;;5113761;28;20668;-52
2022/04/28 09:33:13;;;;;;;17.60;15.20;;;18.10;99.90;;;;;;5113433;28;20601;-52
2022/04/28 09:35:49;;;;;;;18.48;15.45;;;18.30;99.90;;;;;;5113938;28;20223;-52
2022/04/28 09:38:18;;;;;;;19.85;15.75;;;18.40;99.90;;;;;;5114302;28;20577;-52
2022/04/28 09:43:55;;;;;;;19.02;15.50;;;18.60;99.90;;;;;;5113797;28;20676;-52
2022/04/28 09:46:29;;;;;;;20.40;16.80;;;18.40;99.90;;;;;;5112668;28;20211;-52
2022/04/28 09:48:59;;;;;;;17.35;15.52;;;18.60;99.90;;;;;;5114077;28;20214;-52
2022/04/28 09:51:30;;;;;;;25.02;17.13;;;18.60;99.90;;;;;;5114137;28;20207;-52
2022/04/28 09:54:02;;;;;;;19.08;16.70;;;18.90;99.90;;;;;;5098762;28;20208;-52
2022/04/28 09:56:34;;;;;;;16.92;15.10;;;19.10;99.90;;;;;;5110792;28;20234;-52
2022/04/28 09:59:05;;;;;;;17.60;14.13;;;19.10;99.90;;;;;;5113627;28;20692;-52
2022/04/28 10:01:33;;;;;;;17.23;14.52;;;19.20;99.90;;;;;;5113437;28;20484;-51
2022/04/28 10:04:02;;;;;;;18.88;14.07;;;19.20;99.90;;;;;;5112841;28;20248;-52
2022/04/28 10:06:34;;;;;;;16.60;14.57;;;19.30;99.90;;;;;;5113661;28;20219;-52
2022/04/28 10:09:12;;;;;;;17.30;15.50;;;19.30;99.90;;;;;;5107010;28;20566;-52
2022/04/28 10:11:41;;;;;;;16.17;14.48;;;19.20;99.90;;;;;;5092100;28;20217;-52
2022/04/28 10:14:11;;;;;;;18.73;15.77;;;19.30;99.90;;;;;;5093135;28;20662;-52
2022/04/28 10:16:43;;;;;;;16.90;14.07;;;19.30;99.90;;;;;;5093163;28;20231;-52
2022/04/28 10:19:15;;;;;;;15.32;13.57;;;19.30;99.90;;;;;;5092873;28;20209;-52
2022/04/28 10:21:50;;;;;;;11.75;10.65;;;19.40;99.90;;;;;;5091157;28;20258;-53
2022/04/28 10:33:10;;;;;;;13.15;11.57;;;19.80;99.90;;;;;;5092320;28;20285;-52
2022/04/28 10:35:40;;;;;;;12.00;10.63;;;19.90;99.90;;;;;;5092706;28;20639;-52
2022/04/28 10:38:20;;;;;;;11.65;10.45;;;19.90;99.90;;;;;;5105837;28;20216;-52
2022/04/28 10:40:59;;;;;;;12.93;11.50;;;19.90;99.90;;;;;;5112112;28;20264;-50
2022/04/28 10:43:29;;;;;;;12.95;10.10;;;19.90;99.90;;;;;;5112550;28;20203;-52
2022/04/28 10:46:00;;;;;;;13.52;11.13;;;20.00;99.90;;;;;;5112643;28;20227;-52
2022/04/28 10:48:33;;;;;;;12.05;10.55;;;20.00;99.90;;;;;;5112906;28;20304;-52
2022/04/28 10:51:10;;;;;;;12.77;10.82;;;19.80;99.90;;;;;;5092275;28;20204;-52
2022/04/28 10:54:00;;;;;;;12.13;10.85;;;20.00;99.90;;;;;;5078300;28;20213;-52
2022/04/28 10:56:32;;;;;;;14.70;10.85;;;20.00;99.90;;;;;;5090369;28;20228;-52
2022/04/28 10:59:02;;;;;;;10.95;9.88;;;20.20;99.90;;;;;;5091984;28;20273;-51
2022/04/28 11:01:33;;;;;;;11.57;9.88;;;20.10;99.90;;;;;;5091947;28;20200;-51
2022/04/28 11:04:02;;;;;;;11.40;10.20;;;20.30;99.90;;;;;;5091836;28;20295;-52
2022/04/28 11:06:33;;;;;;;10.75;9.55;;;20.40;99.40;;;;;;5092142;28;20236;-51
2022/04/28 11:09:04;;;;;;;11.23;9.02;;;20.50;99.90;;;;;;5090457;28;20211;-52
2022/04/28 11:11:44;;;;;;;10.90;8.23;;;20.30;96.20;;;;;;5091988;28;20204;-52
2022/04/28 11:14:14;;;;;;;9.60;7.60;;;20.40;95.30;;;;;;5092028;28;20208;-51
2022/04/28 11:16:43;;;;;;;10.85;8.35;;;20.50;96.30;;;;;;5091622;28;20236;-52
2022/04/28 11:19:12;;;;;;;8.82;7.70;;;20.40;96.50;;;;;;5092245;28;20576;-53
2022/04/28 11:21:43;;;;;;;10.52;9.20;;;20.40;97.50;;;;;;5091609;28;20208;-52
2022/04/28 11:24:11;;;;;;;11.48;9.15;;;20.50;98.40;;;;;;5092128;28;20208;-50
2022/04/28 11:26:39;;;;;;;12.95;9.38;;;20.50;98.00;;;;;;5091657;28;20228;-52
2022/04/28 11:29:10;;;;;;;10.23;9.02;;;20.50;97.80;;;;;;5087744;28;20230;-51
2022/04/28 11:31:46;;;;;;;11.38;8.93;;;20.50;98.10;;;;;;5071957;28;20907;-52
2022/04/28 11:34:14;;;;;;;11.27;8.35;;;20.50;97.40;;;;;;5091424;28;20200;-52
2022/04/28 11:36:43;;;;;;;11.35;8.77;;;20.40;98.50;;;;;;5090965;28;20281;-52
2022/04/28 11:39:11;;;;;;;14.52;9.60;;;20.20;97.90;;;;;;5087368;28;20306;-51
2022/04/28 11:41:41;;;;;;;12.20;9.18;;;20.30;96.90;;;;;;5089902;28;20208;-52
2022/04/28 11:44:12;;;;;;;10.00;8.45;;;20.30;95.70;;;;;;5091215;28;20200;-51
2022/04/28 11:46:49;;;;;;;10.18;9.18;;;20.40;95.70;;;;;;5085205;28;20225;-52
2022/04/28 11:49:18;;;;;;;11.52;9.65;;;20.40;94.70;;;;;;5090839;28;20211;-52
2022/04/28 11:51:46;;;;;;;9.00;8.10;;;20.40;95.40;;;;;;5090730;28;20277;-53
2022/04/28 11:54:24;;;;;;;9.43;8.00;;;20.60;94.80;;;;;;5111411;28;20301;-51
2022/04/28 11:56:52;;;;;;;10.57;8.07;;;20.70;95.80;;;;;;5111461;28;20711;-52
2022/04/28 11:59:22;;;;;;;10.93;8.60;;;20.70;95.50;;;;;;5111638;28;20272;-52
2022/04/28 12:01:50;;;;;;;9.48;8.02;;;20.70;95.60;;;;;;5094993;28;20204;-51
2022/04/28 12:04:18;;;;;;;10.93;9.07;;;20.80;95.20;;;;;;5090929;28;20208;-52
2022/04/28 12:06:48;;;;;;;9.45;8.27;;;21.00;94.80;;;;;;5091454;28;20273;-51
2022/04/28 12:14:51;;;;;;;10.65;8.93;;;20.90;92.80;;;;;;5090717;28;20253;-52
2022/04/28 12:20:10;;;;;;;8.82;7.90;;;21.00;95.70;;;;;;5091009;28;20261;-52
2022/04/28 12:22:40;;;;;;;10.52;8.98;;;21.20;96.50;;;;;;5090094;28;20204;-52
2022/04/28 12:25:10;;;;;;;8.65;7.82;;;21.30;96.20;;;;;;5090907;28;20224;-52
2022/04/28 12:27:41;;;;;;;9.35;7.50;;;21.40;93.90;;;;;;5089505;28;20211;-52
2022/04/28 12:30:13;;;;;;;8.02;7.22;;;21.30;93.80;;;;;;5089881;28;20207;-52
2022/04/28 12:32:44;;;;;;;9.48;7.80;;;21.20;92.70;;;;;;5090562;28;20269;-52
2022/04/28 12:35:25;;;;;;;8.90;7.40;;;21.10;90.40;;;;;;5090471;28;20293;-52
2022/04/28 12:37:58;;;;;;;8.05;7.22;;;21.10;92.70;;;;;;5090434;28;20224;-52
2022/04/28 12:40:27;;;;;;;9.90;7.30;;;21.20;91.00;;;;;;5090856;28;20212;-52
2022/04/28 12:42:57;;;;;;;8.43;7.10;;;21.10;90.00;;;;;;5090682;28;20231;-52
2022/04/28 12:45:45;;;;;;;9.40;7.30;;;21.10;92.40;;;;;;5094486;28;20224;-52
2022/04/28 12:48:28;;;;;;;9.32;7.00;;;21.30;92.00;;;;;;5094712;28;20200;-52
2022/04/28 12:51:16;;;;;;;7.32;6.45;;;21.30;90.20;;;;;;5095004;28;20204;-52
2022/04/28 12:53:47;;;;;;;8.50;6.43;;;21.30;90.70;;;;;;5094496;28;20211;-52
2022/04/28 12:56:16;;;;;;;7.32;6.45;;;21.30;92.30;;;;;;5094592;28;20232;-52
2022/04/28 12:58:46;;;;;;;8.02;6.22;;;21.30;90.90;;;;;;5094687;28;20227;-52
2022/04/28 13:01:18;;;;;;;10.27;6.82;;;21.40;90.70;;;;;;5094467;28;20265;-51
2022/04/28 13:03:55;;;;;;;6.95;6.28;;;21.30;90.60;;;;;;5094252;28;20204;-52
2022/04/28 13:06:25;;;;;;;10.15;6.88;;;21.40;91.00;;;;;;5094555;28;20258;-50
2022/04/28 13:08:58;;;;;;;8.18;7.38;;;21.20;91.80;;;;;;5094277;28;20797;-52
2022/04/28 13:11:28;;;;;;;8.30;6.97;;;21.00;90.00;;;;;;5094686;28;20207;-52
2022/04/28 13:13:56;;;;;;;7.88;6.63;;;20.90;90.80;;;;;;5093920;28;20249;-51
2022/04/28 13:16:26;;;;;;;10.45;7.80;;;20.70;93.40;;;;;;5094608;28;20224;-52
2022/04/28 13:18:56;;;;;;;10.75;8.35;;;20.90;93.20;;;;;;5094336;28;20224;-52
2022/04/28 13:21:25;;;;;;;12.85;8.90;;;20.90;91.50;;;;;;5094225;28;20208;-52
2022/04/28 13:23:56;;;;;;;10.15;8.15;;;20.90;91.90;;;;;;5093546;28;20235;-52
2022/04/28 13:26:26;;;;;;;10.32;7.25;;;20.90;92.20;;;;;;5094624;28;20228;-52
2022/04/28 13:28:55;;;;;;;11.45;6.95;;;20.90;93.40;;;;;;5094082;28;20665;-52
2022/04/28 13:31:24;;;;;;;9.35;7.35;;;20.80;93.20;;;;;;5094184;28;20212;-52